createdAt,value
2022-08-22T00:00:27.169Z,18.10
2022-08-22T00:01:28.257Z,18.16
2022-08-22T00:02:27.344Z,18.14
2022-08-22T00:02:45.887Z,21.21
2022-08-22T00:02:46.875Z,19.98
2022-08-22T00:02:54.357Z,20.12
2022-08-22T00:02:56.597Z,19.80
2022-08-22T00:02:58.605Z,21.51
2022-08-22T00:03:00.571Z,20.04
2022-08-22T00:03:02.493Z,21.34
2022-08-22T00:03:08.202Z,21.03
2022-08-22T00:03:10.011Z,20.15
2022-08-22T00:03:11.647Z,20.64
2022-08-22T00:03:27.409Z,18.16
2022-08-22T00:04:27.521Z,18.16
2022-08-22T00:05:28.599Z,18.14
2022-08-22T00:06:27.681Z,18.13
2022-08-22T00:07:26.702Z,18.11
2022-08-22T00:08:26.799Z,18.10
2022-08-22T00:09:26.907Z,18.11
2022-08-22T00:10:27.023Z,18.09
2022-08-22T00:11:27.102Z,18.09
2022-08-22T00:12:27.237Z,18.10
2022-08-22T00:13:27.330Z,18.10
2022-08-22T00:14:27.441Z,18.09
2022-08-22T00:15:31.710Z,18.07
2022-08-22T00:16:27.601Z,18.09
2022-08-22T00:17:26.702Z,18.07
2022-08-22T00:18:26.807Z,18.04
2022-08-22T00:19:26.848Z,18.02
2022-08-22T00:20:28.309Z,18.02
2022-08-22T00:21:26.991Z,18.02
2022-08-22T00:22:27.053Z,18.01
2022-08-22T00:23:27.121Z,17.98
2022-08-22T00:24:27.218Z,17.99
2022-08-22T00:25:27.301Z,17.95
2022-08-22T00:26:27.356Z,17.95
2022-08-22T00:27:26.395Z,17.92
2022-08-22T00:28:26.478Z,17.94
2022-08-22T00:29:26.583Z,17.91
2022-08-22T00:30:26.663Z,17.87
2022-08-22T00:31:27.665Z,17.87
2022-08-22T00:32:26.807Z,17.84
2022-08-22T00:33:26.884Z,17.84
2022-08-22T00:34:26.984Z,17.86
2022-08-22T00:35:27.044Z,17.92
2022-08-22T00:36:27.122Z,17.91
2022-08-22T00:37:27.197Z,17.92
2022-08-22T00:38:27.301Z,17.89
2022-08-22T00:39:26.324Z,17.91
2022-08-22T00:40:26.429Z,17.89
2022-08-22T00:41:26.485Z,17.87
2022-08-22T00:42:29.349Z,17.84
2022-08-22T00:43:27.602Z,17.86
2022-08-22T00:44:26.679Z,17.86
2022-08-22T00:45:26.745Z,17.87
2022-08-22T00:46:26.802Z,17.86
2022-08-22T00:47:26.869Z,17.81
2022-08-22T00:48:26.929Z,17.79
2022-08-22T00:49:27.176Z,17.74
2022-08-22T00:50:27.085Z,17.70
2022-08-22T00:51:26.099Z,17.71
2022-08-22T00:52:26.180Z,17.70
2022-08-22T00:53:26.251Z,17.70
2022-08-22T00:54:26.319Z,17.73
2022-08-22T00:55:26.368Z,17.70
2022-08-22T00:56:27.439Z,17.68
2022-08-22T00:57:28.438Z,17.68
2022-08-22T00:58:26.530Z,17.66
2022-08-22T00:59:26.599Z,17.63
2022-08-22T01:00:26.671Z,17.65
2022-08-22T01:01:27.760Z,17.66
2022-08-22T01:02:26.878Z,17.70
2022-08-22T01:03:26.892Z,17.68
2022-08-22T01:04:25.916Z,17.66
2022-08-22T01:05:26.007Z,17.63
2022-08-22T01:06:26.051Z,17.63
2022-08-22T01:07:30.570Z,17.63
2022-08-22T01:08:27.209Z,17.63
2022-08-22T01:09:26.286Z,17.63
2022-08-22T01:10:26.319Z,17.60
2022-08-22T01:11:26.383Z,17.62
2022-08-22T01:12:26.450Z,17.60
2022-08-22T01:13:26.551Z,17.57
2022-08-22T01:14:34.770Z,17.54
2022-08-22T01:15:27.693Z,17.54
2022-08-22T01:16:25.732Z,17.49
2022-08-22T01:17:25.821Z,17.49
2022-08-22T01:18:25.890Z,17.43
2022-08-22T01:19:25.993Z,17.40
2022-08-22T01:20:26.104Z,17.39
2022-08-22T01:21:26.146Z,17.35
2022-08-22T01:22:26.216Z,17.33
2022-08-22T01:23:26.298Z,17.32
2022-08-22T01:24:26.364Z,17.30
2022-08-22T01:25:26.504Z,17.32
2022-08-22T01:26:26.813Z,17.35
2022-08-22T01:27:26.611Z,17.33
2022-08-22T01:28:25.653Z,17.35
2022-08-22T01:29:27.763Z,17.32
2022-08-22T01:30:25.823Z,17.32
2022-08-22T01:31:25.920Z,17.28
2022-08-22T01:32:25.988Z,17.28
2022-08-22T01:33:26.057Z,17.25
2022-08-22T01:34:26.154Z,17.24
2022-08-22T01:35:26.242Z,17.22
2022-08-22T01:36:26.384Z,17.20
2022-08-22T01:37:26.429Z,17.17
2022-08-22T01:38:25.472Z,17.17
2022-08-22T01:39:25.556Z,17.14
2022-08-22T01:40:25.636Z,17.10
2022-08-22T01:41:25.697Z,17.09
2022-08-22T01:42:25.825Z,17.09
2022-08-22T01:43:43.871Z,17.12
2022-08-22T01:44:26.924Z,17.12
2022-08-22T01:45:26.030Z,17.14
2022-08-22T01:46:26.085Z,17.15
2022-08-22T01:47:26.179Z,17.15
2022-08-22T01:48:26.286Z,17.15
2022-08-22T01:49:25.306Z,17.14
2022-08-22T01:50:25.418Z,17.15
2022-08-22T01:51:25.467Z,17.15
2022-08-22T01:52:26.507Z,17.14
2022-08-22T01:53:25.648Z,17.14
2022-08-22T01:54:25.718Z,17.12
2022-08-22T01:55:25.815Z,17.09
2022-08-22T01:56:25.907Z,17.09
2022-08-22T01:57:25.962Z,17.09
2022-08-22T01:58:26.056Z,17.09
2022-08-22T01:59:27.574Z,17.10
2022-08-22T02:00:35.243Z,17.14
2022-08-22T02:01:26.313Z,17.17
2022-08-22T02:02:25.352Z,17.21
2022-08-22T02:03:25.433Z,17.20
2022-08-22T02:04:25.564Z,17.22
2022-08-22T02:05:25.566Z,17.21
2022-08-22T02:06:25.649Z,17.20
2022-08-22T02:07:32.295Z,17.20
2022-08-22T02:08:26.826Z,17.20
2022-08-22T02:09:25.918Z,17.18
2022-08-22T02:10:26.130Z,17.17
2022-08-22T02:11:25.139Z,17.20
2022-08-22T02:12:25.218Z,17.18
2022-08-22T02:13:25.270Z,17.17
2022-08-22T02:14:25.338Z,17.18
2022-08-22T02:15:25.431Z,17.18
2022-08-22T02:16:25.472Z,17.20
2022-08-22T02:17:25.534Z,17.21
2022-08-22T02:18:25.635Z,17.20
2022-08-22T02:19:25.711Z,17.20
2022-08-22T02:20:25.819Z,17.17
2022-08-22T02:21:25.920Z,17.17
2022-08-22T02:22:24.953Z,17.17
2022-08-22T02:23:25.043Z,17.14
2022-08-22T02:24:25.132Z,17.12
2022-08-22T02:25:25.212Z,17.09
2022-08-22T02:26:25.344Z,17.09
2022-08-22T02:27:25.401Z,17.07
2022-08-22T02:28:26.489Z,17.06
2022-08-22T02:29:25.583Z,17.03
2022-08-22T02:30:25.651Z,17.00
2022-08-22T02:31:25.755Z,17.03
2022-08-22T02:32:24.793Z,17.05
2022-08-22T02:33:25.825Z,17.02
2022-08-22T02:34:24.952Z,17.03
2022-08-22T02:35:25.033Z,17.02
2022-08-22T02:36:25.120Z,17.02
2022-08-22T02:37:25.232Z,17.00
2022-08-22T02:38:25.296Z,16.98
2022-08-22T02:39:24.806Z,16.99
2022-08-22T02:40:24.929Z,16.98
2022-08-22T02:41:24.965Z,16.95
2022-08-22T02:42:25.054Z,16.95
2022-08-22T02:43:25.155Z,16.95
2022-08-22T02:44:25.206Z,16.95
2022-08-22T02:45:25.292Z,16.95
2022-08-22T02:46:25.351Z,16.95
2022-08-22T02:47:25.433Z,16.96
2022-08-22T02:48:26.314Z,16.92
2022-08-22T02:49:24.516Z,16.90
2022-08-22T02:50:24.598Z,16.91
2022-08-22T02:51:24.654Z,16.88
2022-08-22T02:52:24.748Z,16.90
2022-08-22T02:53:24.819Z,16.88
2022-08-22T02:54:24.926Z,16.85
2022-08-22T02:55:24.986Z,16.84
2022-08-22T02:56:25.077Z,16.84
2022-08-22T02:57:26.285Z,16.82
2022-08-22T02:58:25.243Z,16.78
2022-08-22T02:59:25.354Z,16.78
2022-08-22T03:00:32.709Z,16.80
2022-08-22T03:01:25.420Z,16.78
2022-08-22T03:02:24.478Z,16.77
2022-08-22T03:03:24.540Z,16.70
2022-08-22T03:04:24.599Z,16.65
2022-08-22T03:05:24.708Z,16.57
2022-08-22T03:06:24.713Z,16.50
2022-08-22T03:07:24.819Z,16.48
2022-08-22T03:08:24.843Z,16.45
2022-08-22T03:09:24.923Z,16.42
2022-08-22T03:10:24.990Z,16.41
2022-08-22T03:11:25.066Z,16.42
2022-08-22T03:12:25.130Z,16.41
2022-08-22T03:13:25.226Z,16.41
2022-08-22T03:14:24.230Z,16.44
2022-08-22T03:15:24.305Z,16.42
2022-08-22T03:16:24.693Z,16.41
2022-08-22T03:17:24.455Z,16.42
2022-08-22T03:18:25.460Z,16.42
2022-08-22T03:19:24.282Z,16.44
2022-08-22T03:20:24.370Z,16.47
2022-08-22T03:21:24.453Z,16.44
2022-08-22T03:22:24.529Z,16.47
2022-08-22T03:23:24.204Z,16.44
2022-08-22T03:24:24.277Z,16.41
2022-08-22T03:25:24.350Z,16.41
2022-08-22T03:26:24.420Z,16.40
2022-08-22T03:27:31.405Z,16.37
2022-08-22T03:28:25.542Z,16.37
2022-08-22T03:29:24.606Z,16.37
2022-08-22T03:30:24.689Z,16.37
2022-08-22T03:31:24.744Z,16.37
2022-08-22T03:32:24.848Z,16.33
2022-08-22T03:33:24.923Z,16.36
2022-08-22T03:34:23.968Z,16.33
2022-08-22T03:35:24.042Z,16.36
2022-08-22T03:36:24.132Z,16.34
2022-08-22T03:37:24.210Z,16.36
2022-08-22T03:38:24.335Z,16.33
2022-08-22T03:39:24.387Z,16.32
2022-08-22T03:40:24.582Z,16.34
2022-08-22T03:41:25.515Z,16.33
2022-08-22T03:42:24.581Z,16.32
2022-08-22T03:43:24.673Z,16.29
2022-08-22T03:44:24.750Z,16.26
2022-08-22T03:45:24.818Z,16.29
2022-08-22T03:46:23.873Z,16.29
2022-08-22T03:47:23.961Z,16.23
2022-08-22T03:48:24.043Z,16.17
2022-08-22T03:49:24.134Z,16.17
2022-08-22T03:50:24.189Z,16.14
2022-08-22T03:51:24.243Z,16.10
2022-08-22T03:52:25.261Z,16.07
2022-08-22T03:53:24.391Z,16.06
2022-08-22T03:54:24.596Z,16.01
2022-08-22T03:55:25.595Z,15.93
2022-08-22T03:56:24.682Z,15.92
2022-08-22T03:57:23.731Z,15.92
2022-08-22T03:58:28.356Z,15.95
2022-08-22T03:59:23.926Z,15.96
2022-08-22T04:00:24.025Z,15.96
2022-08-22T04:01:24.090Z,15.95
2022-08-22T04:02:43.652Z,15.93
2022-08-22T04:03:25.275Z,15.91
2022-08-22T04:04:24.341Z,15.89
2022-08-22T04:05:24.466Z,15.86
2022-08-22T04:06:24.511Z,15.85
2022-08-22T04:07:31.758Z,15.81
2022-08-22T04:08:26.403Z,15.81
2022-08-22T04:09:23.728Z,15.76
2022-08-22T04:10:23.810Z,15.74
2022-08-22T04:11:24.077Z,15.73
2022-08-22T04:12:23.973Z,15.71
2022-08-22T04:13:24.748Z,15.70
2022-08-22T04:14:24.171Z,15.70
2022-08-22T04:15:24.258Z,15.68
2022-08-22T04:16:24.354Z,15.67
2022-08-22T04:17:24.423Z,15.66
2022-08-22T04:18:23.481Z,15.66
2022-08-22T04:19:23.533Z,15.64
2022-08-22T04:20:23.595Z,15.62
2022-08-22T04:21:23.675Z,15.66
2022-08-22T04:22:23.765Z,15.66
2022-08-22T04:23:23.803Z,15.66
2022-08-22T04:24:23.878Z,15.64
2022-08-22T04:25:23.959Z,15.62
2022-08-22T04:26:24.026Z,15.60
2022-08-22T04:27:24.075Z,15.59
2022-08-22T04:28:24.141Z,15.60
2022-08-22T04:29:24.192Z,15.58
2022-08-22T04:30:23.225Z,15.58
2022-08-22T04:31:23.289Z,15.55
2022-08-22T04:32:23.356Z,15.52
2022-08-22T04:33:23.432Z,15.49
2022-08-22T04:34:23.472Z,15.46
2022-08-22T04:35:23.532Z,15.44
2022-08-22T04:36:23.621Z,15.46
2022-08-22T04:37:23.683Z,15.44
2022-08-22T04:38:23.762Z,15.41
2022-08-22T04:39:23.824Z,15.52
2022-08-22T04:40:23.903Z,15.43
2022-08-22T04:41:23.953Z,15.44
2022-08-22T04:42:33.107Z,15.44
2022-08-22T04:43:30.422Z,15.44
2022-08-22T04:44:23.105Z,15.43
2022-08-22T04:45:23.186Z,15.44
2022-08-22T04:46:23.316Z,15.46
2022-08-22T04:47:23.339Z,15.49
2022-08-22T04:48:23.397Z,15.51
2022-08-22T04:49:23.488Z,15.52
2022-08-22T04:50:23.555Z,15.52
2022-08-22T04:51:23.638Z,15.52
2022-08-22T04:52:23.667Z,15.53
2022-08-22T04:53:24.756Z,15.52
2022-08-22T04:54:23.846Z,15.53
2022-08-22T04:55:22.885Z,15.52
2022-08-22T04:56:22.948Z,15.52
2022-08-22T04:57:23.027Z,15.52
2022-08-22T04:58:23.127Z,15.52
2022-08-22T04:59:23.177Z,15.51
2022-08-22T05:00:23.287Z,15.52
2022-08-22T05:01:23.393Z,15.51
2022-08-22T05:02:23.439Z,15.52
2022-08-22T05:03:23.457Z,15.52
2022-08-22T05:04:23.595Z,15.51
2022-08-22T05:05:23.688Z,15.49
2022-08-22T05:06:23.777Z,15.44
2022-08-22T05:07:22.797Z,15.43
2022-08-22T05:08:22.870Z,15.49
2022-08-22T05:09:22.950Z,15.48
2022-08-22T05:10:23.051Z,15.46
2022-08-22T05:11:23.258Z,15.48
2022-08-22T05:12:23.224Z,15.49
2022-08-22T05:13:23.331Z,15.52
2022-08-22T05:14:23.409Z,15.58
2022-08-22T05:15:23.590Z,15.59
2022-08-22T05:16:23.718Z,15.59
2022-08-22T05:17:22.652Z,15.60
2022-08-22T05:18:22.702Z,15.60
2022-08-22T05:19:29.631Z,15.66
2022-08-22T05:20:23.889Z,15.64
2022-08-22T05:21:22.959Z,15.64
2022-08-22T05:22:23.051Z,15.64
2022-08-22T05:23:23.111Z,15.64
2022-08-22T05:24:23.196Z,15.67
2022-08-22T05:25:24.281Z,15.66
2022-08-22T05:26:23.374Z,15.64
2022-08-22T05:27:23.499Z,15.62
2022-08-22T05:28:25.129Z,15.59
2022-08-22T05:29:22.609Z,15.58
2022-08-22T05:30:22.691Z,15.55
2022-08-22T05:31:23.264Z,15.55
2022-08-22T05:32:23.790Z,15.52
2022-08-22T05:33:23.126Z,15.53
2022-08-22T05:34:22.990Z,15.51
2022-08-22T05:35:23.088Z,15.52
2022-08-22T05:36:23.456Z,15.52
2022-08-22T05:37:23.236Z,15.51
2022-08-22T05:38:23.345Z,15.52
2022-08-22T05:39:22.336Z,15.52
2022-08-22T05:40:22.573Z,15.53
2022-08-22T05:41:22.462Z,15.55
2022-08-22T05:42:22.533Z,15.56
2022-08-22T05:43:22.608Z,15.56
2022-08-22T05:44:22.727Z,15.56
2022-08-22T05:45:22.784Z,15.60
2022-08-22T05:46:27.079Z,15.62
2022-08-22T05:47:22.972Z,15.64
2022-08-22T05:48:23.084Z,15.67
2022-08-22T05:49:23.158Z,15.70
2022-08-22T05:50:22.200Z,15.70
2022-08-22T05:51:22.266Z,15.73
2022-08-22T05:52:22.593Z,15.76
2022-08-22T05:53:22.397Z,15.80
2022-08-22T05:54:22.457Z,15.85
2022-08-22T05:55:23.557Z,15.89
2022-08-22T05:56:22.594Z,15.95
2022-08-22T05:57:22.678Z,16.01
2022-08-22T05:58:22.755Z,16.07
2022-08-22T05:59:22.832Z,16.14
2022-08-22T06:00:22.903Z,16.18
2022-08-22T06:01:23.014Z,16.25
2022-08-22T06:02:23.033Z,16.29
2022-08-22T06:03:22.057Z,16.34
2022-08-22T06:04:22.104Z,16.40
2022-08-22T06:05:22.144Z,16.42
2022-08-22T06:06:22.199Z,16.45
2022-08-22T06:07:22.264Z,16.47
2022-08-22T06:08:22.313Z,16.50
2022-08-22T06:09:22.358Z,16.52
2022-08-22T06:10:22.436Z,16.54
2022-08-22T06:11:22.446Z,16.59
2022-08-22T06:12:22.592Z,16.62
2022-08-22T06:13:24.430Z,16.63
2022-08-22T06:14:24.882Z,16.66
2022-08-22T06:15:22.667Z,16.69
2022-08-22T06:16:22.714Z,16.72
2022-08-22T06:17:22.787Z,16.73
2022-08-22T06:18:21.844Z,16.75
2022-08-22T06:19:21.870Z,16.78
2022-08-22T06:20:21.908Z,16.81
2022-08-22T06:21:21.979Z,16.82
2022-08-22T06:22:22.016Z,16.87
2022-08-22T06:23:22.127Z,16.88
2022-08-22T06:24:22.151Z,16.91
2022-08-22T06:25:22.206Z,16.91
2022-08-22T06:26:22.260Z,16.92
2022-08-22T06:27:22.345Z,16.98
2022-08-22T06:28:22.436Z,17.00
2022-08-22T06:29:22.482Z,17.02
2022-08-22T06:30:22.578Z,17.06
2022-08-22T06:31:22.640Z,17.09
2022-08-22T06:32:44.466Z,17.09
2022-08-22T06:33:22.759Z,17.12
2022-08-22T06:34:21.869Z,17.14
2022-08-22T06:35:21.918Z,17.18
2022-08-22T06:36:21.993Z,17.21
2022-08-22T06:37:22.064Z,17.20
2022-08-22T06:38:22.151Z,17.21
2022-08-22T06:39:22.295Z,17.22
2022-08-22T06:40:22.339Z,17.24
2022-08-22T06:41:22.342Z,17.25
2022-08-22T06:42:22.415Z,17.27
2022-08-22T06:43:22.505Z,17.28
2022-08-22T06:44:21.522Z,17.32
2022-08-22T06:45:21.620Z,17.32
2022-08-22T06:46:21.683Z,17.35
2022-08-22T06:47:21.764Z,17.35
2022-08-22T06:48:21.843Z,17.38
2022-08-22T06:49:21.901Z,17.40
2022-08-22T06:50:21.988Z,17.40
2022-08-22T06:51:22.080Z,17.43
2022-08-22T06:52:22.175Z,17.45
2022-08-22T06:53:22.263Z,17.45
2022-08-22T06:54:22.373Z,17.49
2022-08-22T06:55:21.415Z,17.53
2022-08-22T06:56:21.541Z,17.55
2022-08-22T06:57:21.578Z,17.57
2022-08-22T06:58:21.646Z,17.58
2022-08-22T06:59:21.777Z,17.63
2022-08-22T07:00:21.855Z,17.65
2022-08-22T07:01:21.997Z,17.68
2022-08-22T07:02:22.069Z,17.70
2022-08-22T07:03:22.130Z,17.70
2022-08-22T07:04:22.217Z,17.76
2022-08-22T07:05:21.309Z,17.77
2022-08-22T07:06:21.363Z,17.79
2022-08-22T07:07:21.468Z,17.83
2022-08-22T07:08:21.500Z,17.84
2022-08-22T07:09:21.580Z,17.87
2022-08-22T07:10:21.677Z,17.91
2022-08-22T07:11:21.787Z,17.95
2022-08-22T07:12:21.869Z,17.98
2022-08-22T07:13:21.947Z,18.02
2022-08-22T07:14:21.989Z,18.04
2022-08-22T07:15:22.047Z,18.09
2022-08-22T07:16:21.077Z,18.11
2022-08-22T07:17:21.158Z,18.17
2022-08-22T07:18:21.297Z,18.17
2022-08-22T07:19:21.304Z,18.19
2022-08-22T07:20:21.375Z,18.21
2022-08-22T07:21:22.444Z,18.21
2022-08-22T07:22:21.561Z,18.23
2022-08-22T07:23:21.671Z,18.25
2022-08-22T07:24:21.739Z,18.26
2022-08-22T07:25:21.817Z,18.26
2022-08-22T07:26:21.886Z,18.31
2022-08-22T07:27:20.908Z,18.32
2022-08-22T07:28:21.010Z,18.34
2022-08-22T07:29:22.109Z,18.38
2022-08-22T07:30:27.935Z,18.41
2022-08-22T07:31:22.179Z,18.46
2022-08-22T07:32:22.242Z,18.46
2022-08-22T07:33:27.117Z,18.51
2022-08-22T07:34:22.449Z,18.57
2022-08-22T07:35:21.469Z,18.62
2022-08-22T07:36:23.116Z,18.66
2022-08-22T07:37:21.629Z,18.74
2022-08-22T07:38:21.709Z,18.76
2022-08-22T07:39:21.500Z,18.84
2022-08-22T07:40:20.954Z,18.89
2022-08-22T07:41:20.889Z,18.94
2022-08-22T07:42:20.941Z,18.97
2022-08-22T07:43:20.993Z,19.05
2022-08-22T07:44:21.052Z,19.10
2022-08-22T07:45:21.092Z,19.15
2022-08-22T07:46:22.110Z,19.21
2022-08-22T07:47:26.662Z,19.28
2022-08-22T07:48:26.021Z,19.34
2022-08-22T07:49:21.309Z,19.42
2022-08-22T07:50:21.389Z,19.47
2022-08-22T07:51:21.421Z,19.57
2022-08-22T07:52:21.467Z,19.64
2022-08-22T07:53:21.510Z,19.67
2022-08-22T07:54:21.561Z,19.72
2022-08-22T07:55:21.562Z,19.79
2022-08-22T07:56:20.630Z,19.85
2022-08-22T07:57:20.653Z,19.92
2022-08-22T07:58:20.701Z,20.00
2022-08-22T07:59:20.743Z,20.08
2022-08-22T08:00:20.810Z,20.12
2022-08-22T08:01:20.925Z,20.16
2022-08-22T08:02:20.880Z,20.23
2022-08-22T08:03:20.930Z,20.27
2022-08-22T08:04:20.976Z,20.34
2022-08-22T08:05:21.023Z,20.40
2022-08-22T08:06:21.078Z,20.44
2022-08-22T08:07:21.096Z,20.50
2022-08-22T08:08:21.147Z,20.54
2022-08-22T08:09:22.139Z,20.58
2022-08-22T08:10:21.233Z,20.60
2022-08-22T08:11:21.289Z,20.66
2022-08-22T08:12:21.314Z,20.68
2022-08-22T08:13:20.315Z,20.75
2022-08-22T08:14:20.346Z,20.79
2022-08-22T08:15:20.370Z,20.82
2022-08-22T08:16:20.384Z,20.85
2022-08-22T08:17:20.407Z,20.90
2022-08-22T08:18:20.427Z,20.94
2022-08-22T08:19:20.461Z,20.98
2022-08-22T08:20:20.477Z,20.98
2022-08-22T08:21:20.509Z,20.97
2022-08-22T08:22:20.541Z,20.98
2022-08-22T08:23:23.410Z,21.00
2022-08-22T08:24:20.588Z,21.00
2022-08-22T08:25:20.614Z,21.01
2022-08-22T08:26:20.734Z,21.08
2022-08-22T08:27:20.671Z,21.12
2022-08-22T08:28:20.693Z,21.18
2022-08-22T08:29:20.743Z,21.22
2022-08-22T08:30:20.775Z,21.30
2022-08-22T08:31:20.790Z,21.38
2022-08-22T08:32:21.197Z,21.48
2022-08-22T08:33:25.272Z,21.53
2022-08-22T08:34:21.891Z,21.61
2022-08-22T08:35:20.923Z,21.67
2022-08-22T08:36:20.930Z,21.74
2022-08-22T08:37:20.987Z,21.79
2022-08-22T08:38:20.972Z,21.83
2022-08-22T08:39:20.963Z,21.90
2022-08-22T08:40:20.046Z,21.96
2022-08-22T08:41:22.598Z,21.99
2022-08-22T08:42:20.045Z,22.02
2022-08-22T08:43:20.029Z,22.04
2022-08-22T08:44:20.047Z,22.01
2022-08-22T08:45:20.096Z,21.98
2022-08-22T08:46:20.203Z,21.94
2022-08-22T08:47:20.212Z,21.99
2022-08-22T08:48:20.243Z,22.02
2022-08-22T08:49:20.254Z,22.08
2022-08-22T08:50:20.307Z,22.17
2022-08-22T08:51:20.340Z,22.26
2022-08-22T08:52:21.343Z,22.33
2022-08-22T08:53:20.371Z,22.44
2022-08-22T08:54:20.385Z,22.56
2022-08-22T08:55:22.773Z,22.66
2022-08-22T08:56:20.413Z,22.76
2022-08-22T08:57:20.477Z,22.86
2022-08-22T08:58:20.521Z,22.91
2022-08-22T08:59:20.519Z,23.04
2022-08-22T09:00:20.553Z,23.14
2022-08-22T09:01:20.598Z,23.22
2022-08-22T09:02:23.527Z,23.26
2022-08-22T09:03:30.568Z,23.31
2022-08-22T09:04:21.616Z,23.35
2022-08-22T09:05:20.649Z,23.38
2022-08-22T09:06:19.636Z,23.37
2022-08-22T09:07:19.646Z,23.41
2022-08-22T09:08:19.699Z,23.38
2022-08-22T09:09:19.683Z,23.39
2022-08-22T09:10:19.674Z,23.39
2022-08-22T09:11:27.040Z,23.42
2022-08-22T09:12:20.688Z,23.41
2022-08-22T09:13:19.721Z,23.45
2022-08-22T09:14:19.722Z,23.50
2022-08-22T09:15:19.741Z,23.53
2022-08-22T09:16:19.762Z,23.60
2022-08-22T09:17:19.778Z,23.64
2022-08-22T09:18:19.788Z,23.67
2022-08-22T09:19:19.793Z,23.68
2022-08-22T09:20:19.798Z,23.68
2022-08-22T09:21:29.713Z,23.71
2022-08-22T09:22:20.800Z,23.72
2022-08-22T09:23:19.816Z,23.79
2022-08-22T09:24:19.821Z,23.87
2022-08-22T09:25:19.857Z,23.99
2022-08-22T09:26:19.839Z,24.05
2022-08-22T09:27:19.844Z,24.12
2022-08-22T09:28:19.876Z,24.16
2022-08-22T09:29:19.859Z,24.21
2022-08-22T09:30:19.854Z,24.26
2022-08-22T09:31:23.309Z,24.18
2022-08-22T09:32:20.896Z,24.09
2022-08-22T09:33:19.938Z,24.15
2022-08-22T09:34:24.245Z,24.11
2022-08-22T09:35:20.944Z,24.09
2022-08-22T09:36:19.950Z,24.12
2022-08-22T09:37:19.985Z,24.16
2022-08-22T09:38:20.027Z,24.14
2022-08-22T09:39:20.052Z,24.18
2022-08-22T09:40:23.369Z,24.31
2022-08-22T09:41:21.086Z,24.42
2022-08-22T09:42:20.126Z,24.46
2022-08-22T09:43:21.179Z,24.49
2022-08-22T09:44:19.137Z,24.55
2022-08-22T09:45:19.179Z,24.61
2022-08-22T09:46:19.194Z,24.66
2022-08-22T09:47:24.280Z,24.71
2022-08-22T09:48:20.274Z,24.77
2022-08-22T09:49:19.405Z,24.86
2022-08-22T09:50:19.364Z,24.93
2022-08-22T09:51:32.112Z,25.02
2022-08-22T09:52:33.287Z,25.09
2022-08-22T09:53:20.536Z,25.16
2022-08-22T09:54:19.546Z,25.20
2022-08-22T09:55:19.596Z,25.24
2022-08-22T09:56:20.639Z,25.31
2022-08-22T09:57:22.644Z,25.34
2022-08-22T09:58:19.701Z,25.36
2022-08-22T09:59:19.757Z,25.41
2022-08-22T10:00:22.153Z,25.46
2022-08-22T10:01:19.869Z,25.51
2022-08-22T10:02:19.830Z,25.57
2022-08-22T10:03:20.801Z,25.61
2022-08-22T10:04:19.890Z,25.64
2022-08-22T10:05:40.894Z,25.69
2022-08-22T10:06:19.904Z,25.75
2022-08-22T10:07:18.935Z,25.69
2022-08-22T10:08:20.041Z,25.64
2022-08-22T10:09:18.992Z,25.64
2022-08-22T10:10:21.489Z,25.83
2022-08-22T10:11:19.015Z,26.04
2022-08-22T10:12:19.034Z,26.17
2022-08-22T10:13:20.062Z,26.29
2022-08-22T10:14:22.065Z,26.46
2022-08-22T10:15:19.128Z,26.57
2022-08-22T10:16:19.144Z,26.65
2022-08-22T10:17:21.623Z,26.65
2022-08-22T10:18:19.142Z,26.57
2022-08-22T10:19:19.132Z,26.47
2022-08-22T10:20:19.233Z,26.46
2022-08-22T10:21:19.169Z,26.42
2022-08-22T10:22:19.173Z,26.38
2022-08-22T10:23:21.116Z,26.34
2022-08-22T10:24:25.582Z,26.35
2022-08-22T10:25:20.238Z,26.35
2022-08-22T10:26:23.059Z,26.38
2022-08-22T10:27:20.155Z,26.39
2022-08-22T10:28:19.163Z,26.38
2022-08-22T10:29:19.194Z,26.29
2022-08-22T10:30:19.303Z,26.19
2022-08-22T10:31:19.247Z,26.06
2022-08-22T10:32:19.206Z,25.91
2022-08-22T10:33:20.240Z,25.90
2022-08-22T10:34:19.253Z,25.83
2022-08-22T10:35:19.260Z,25.85
2022-08-22T10:36:19.329Z,25.90
2022-08-22T10:37:23.901Z,25.97
2022-08-22T10:38:19.310Z,26.01
2022-08-22T10:39:19.327Z,26.13
2022-08-22T10:40:19.498Z,26.31
2022-08-22T10:41:19.399Z,26.50
2022-08-22T10:42:18.597Z,26.64
2022-08-22T10:43:18.358Z,26.86
2022-08-22T10:44:18.388Z,27.09
2022-08-22T10:45:23.774Z,27.20
2022-08-22T10:46:19.398Z,27.27
2022-08-22T10:47:19.149Z,27.30
2022-08-22T10:48:18.418Z,27.28
2022-08-22T10:49:19.560Z,27.16
2022-08-22T10:50:20.196Z,27.02
2022-08-22T10:51:18.442Z,26.90
2022-08-22T10:52:18.492Z,26.79
2022-08-22T10:53:18.474Z,26.75
2022-08-22T10:54:20.137Z,26.69
2022-08-22T10:55:18.534Z,26.64
2022-08-22T10:56:21.500Z,26.54
2022-08-22T10:57:20.796Z,26.54
2022-08-22T10:58:18.559Z,26.56
2022-08-22T10:59:18.564Z,26.57
2022-08-22T11:00:22.627Z,26.64
2022-08-22T11:01:37.098Z,26.79
2022-08-22T11:02:19.604Z,27.05
2022-08-22T11:03:21.838Z,27.27
2022-08-22T11:04:19.548Z,27.49
2022-08-22T11:05:21.486Z,27.66
2022-08-22T11:06:18.541Z,27.83
2022-08-22T11:07:18.519Z,28.03
2022-08-22T11:08:18.562Z,28.21
2022-08-22T11:09:18.519Z,28.38
2022-08-22T11:10:18.504Z,28.46
2022-08-22T11:11:18.499Z,28.61
2022-08-22T11:12:18.488Z,28.61
2022-08-22T11:13:18.486Z,28.55
2022-08-22T11:14:18.474Z,28.40
2022-08-22T11:15:28.480Z,28.32
2022-08-22T11:16:19.444Z,28.17
2022-08-22T11:17:28.816Z,28.01
2022-08-22T11:18:19.469Z,27.93
2022-08-22T11:19:18.452Z,27.72
2022-08-22T11:20:19.687Z,27.74
2022-08-22T11:21:18.429Z,27.74
2022-08-22T11:22:18.435Z,27.68
2022-08-22T11:23:18.437Z,27.61
2022-08-22T11:24:34.823Z,27.50
2022-08-22T11:25:26.888Z,27.52
2022-08-22T11:26:29.325Z,27.65
2022-08-22T11:27:20.971Z,27.62
2022-08-22T11:28:21.047Z,27.52
2022-08-22T11:29:18.597Z,27.38
2022-08-22T11:30:19.113Z,27.15
2022-08-22T11:31:18.701Z,27.05
2022-08-22T11:32:18.660Z,26.93
2022-08-22T11:33:19.650Z,26.94
2022-08-22T11:34:20.512Z,26.96
2022-08-22T11:35:17.724Z,27.06
2022-08-22T11:36:17.735Z,27.11
2022-08-22T11:37:17.782Z,27.21
2022-08-22T11:38:17.758Z,27.27
2022-08-22T11:39:18.733Z,27.30
2022-08-22T11:40:17.828Z,27.23
2022-08-22T11:41:17.774Z,27.15
2022-08-22T11:42:21.683Z,27.08
2022-08-22T11:43:18.441Z,27.16
2022-08-22T11:44:17.814Z,27.27
2022-08-22T11:45:17.838Z,27.33
2022-08-22T11:46:19.774Z,27.30
2022-08-22T11:47:17.936Z,27.23
2022-08-22T11:48:17.894Z,27.18
2022-08-22T11:49:18.929Z,27.08
2022-08-22T11:50:17.925Z,27.05
2022-08-22T11:51:17.968Z,27.13
2022-08-22T11:52:19.951Z,27.31
2022-08-22T11:53:17.991Z,27.50
2022-08-22T11:54:18.015Z,27.63
2022-08-22T11:55:18.031Z,27.69
2022-08-22T11:56:18.069Z,27.69
2022-08-22T11:57:18.096Z,27.77
2022-08-22T11:58:18.140Z,27.96
2022-08-22T11:59:19.188Z,28.15
2022-08-22T12:00:18.128Z,28.38
2022-08-22T12:01:18.547Z,28.58
2022-08-22T12:02:18.179Z,28.72
2022-08-22T12:03:19.158Z,28.88
2022-08-22T12:04:18.248Z,29.02
2022-08-22T12:05:20.078Z,29.12
2022-08-22T12:06:18.260Z,29.20
2022-08-22T12:07:17.287Z,29.26
2022-08-22T12:08:21.234Z,29.30
2022-08-22T12:09:17.860Z,29.32
2022-08-22T12:10:18.342Z,29.20
2022-08-22T12:11:17.312Z,29.15
2022-08-22T12:12:17.336Z,29.25
2022-08-22T12:13:17.376Z,29.37
2022-08-22T12:14:17.379Z,29.51
2022-08-22T12:15:17.415Z,29.55
2022-08-22T12:16:17.413Z,29.63
2022-08-22T12:17:26.248Z,29.60
2022-08-22T12:18:21.326Z,29.60
2022-08-22T12:19:17.471Z,29.64
2022-08-22T12:20:18.777Z,29.63
2022-08-22T12:21:17.473Z,29.64
2022-08-22T12:22:17.489Z,29.64
2022-08-22T12:23:17.509Z,29.73
2022-08-22T12:24:21.005Z,29.73
2022-08-22T12:25:17.555Z,29.74
2022-08-22T12:26:17.595Z,29.60
2022-08-22T12:27:18.336Z,29.60
2022-08-22T12:28:20.562Z,29.64
2022-08-22T12:29:17.645Z,29.62
2022-08-22T12:30:17.669Z,29.62
2022-08-22T12:31:17.711Z,29.64
2022-08-22T12:32:17.687Z,29.70
2022-08-22T12:33:22.039Z,29.86
2022-08-22T12:34:17.688Z,30.00
2022-08-22T12:35:17.709Z,30.03
2022-08-22T12:36:18.475Z,30.15
2022-08-22T12:37:17.797Z,30.28
2022-08-22T12:38:28.956Z,30.38
2022-08-22T12:39:18.731Z,30.26
2022-08-22T12:40:17.775Z,30.37
2022-08-22T12:41:27.711Z,30.42
2022-08-22T12:42:18.780Z,30.37